Time;durP1;ratioP1;P1;durP2;ratioP2;P2;SDS_P1;SDS_P2;PMS_P1;PMS_P2;Temp;Humidity;BMP_temperature;BMP_pressure;BME280_temperature;BME280_humidity;BME280_pressure;Samples;Min_cycle;Max_cycle;Signal;HPM_P1;HPM_P2
2023/11/03 00:00:19;;;;;;;14.63;13.10;;;9.80;99.90;;;;;;5030015;28;20038;-71
2023/11/03 00:02:45;;;;;;;18.83;15.63;;;9.80;99.90;;;;;;5030038;28;20042;-71
2023/11/03 00:05:14;;;;;;;15.90;14.23;;;9.70;99.90;;;;;;5031865;28;20045;-71
2023/11/03 00:07:41;;;;;;;22.00;16.05;;;9.70;99.90;;;;;;5030924;28;20047;-71
2023/11/03 00:10:09;;;;;;;16.33;14.25;;;9.70;99.90;;;;;;5031681;28;20032;-71
2023/11/03 00:12:36;;;;;;;20.15;14.63;;;9.70;99.90;;;;;;5029906;28;20025;-71
2023/11/03 00:15:05;;;;;;;16.45;14.73;;;9.70;99.90;;;;;;5030829;28;20025;-69
2023/11/03 00:17:31;;;;;;;19.77;15.93;;;9.70;99.90;;;;;;5031674;28;20049;-71
2023/11/03 00:19:58;;;;;;;26.52;23.98;;;9.70;99.90;;;;;;5030445;28;20033;-71
2023/11/03 00:22:24;;;;;;;33.17;25.88;;;9.80;99.90;;;;;;5031098;28;20026;-70
2023/11/03 00:24:50;;;;;;;29.23;25.30;;;9.80;99.90;;;;;;5030485;28;20033;-71
2023/11/03 00:27:16;;;;;;;22.00;19.42;;;9.80;99.90;;;;;;5029343;28;20042;-71
2023/11/03 00:29:42;;;;;;;23.98;20.80;;;9.90;99.90;;;;;;5031001;28;20021;-70
2023/11/03 00:32:09;;;;;;;21.33;16.27;;;9.90;99.90;;;;;;5027363;28;20399;-71
2023/11/03 00:34:36;;;;;;;17.58;15.73;;;9.90;99.90;;;;;;5030242;28;20025;-72
2023/11/03 00:37:02;;;;;;;24.63;18.52;;;9.90;99.90;;;;;;5030382;28;20025;-71
2023/11/03 00:39:29;;;;;;;23.67;21.33;;;9.90;99.90;;;;;;5029482;28;20398;-72
2023/11/03 00:41:55;;;;;;;22.27;20.02;;;9.90;99.90;;;;;;5030148;28;20494;-71
2023/11/03 00:44:24;;;;;;;22.83;20.45;;;9.80;99.90;;;;;;5030228;28;20037;-71
2023/11/03 00:46:51;;;;;;;23.08;19.55;;;9.90;99.90;;;;;;5029069;28;20430;-71
2023/11/03 00:49:20;;;;;;;21.98;19.52;;;9.90;99.90;;;;;;5022102;28;20029;-71
2023/11/03 00:51:47;;;;;;;25.83;20.35;;;9.90;99.90;;;;;;5026378;28;20034;-71
2023/11/03 00:54:14;;;;;;;21.40;19.17;;;9.90;99.90;;;;;;5033591;28;20037;-72
2023/11/03 00:56:41;;;;;;;18.15;16.38;;;9.80;99.90;;;;;;5026079;28;20030;-71
2023/11/03 00:59:11;;;;;;;27.00;24.70;;;9.80;99.90;;;;;;5025169;28;20029;-71
2023/11/03 01:01:38;;;;;;;22.08;19.92;;;9.80;99.90;;;;;;5031811;28;20553;-71
2023/11/03 01:04:05;;;;;;;18.85;17.30;;;9.80;99.90;;;;;;5033199;28;20470;-71
2023/11/03 01:06:31;;;;;;;19.58;17.92;;;9.80;99.90;;;;;;5034301;28;20060;-71
2023/11/03 01:08:57;;;;;;;19.08;17.40;;;9.70;99.90;;;;;;5035025;28;20025;-71
2023/11/03 01:11:23;;;;;;;26.20;23.30;;;9.70;99.90;;;;;;5023956;28;20046;-71
2023/11/03 01:13:50;;;;;;;30.23;27.50;;;9.70;99.90;;;;;;5053494;28;20033;-71
2023/11/03 01:16:16;;;;;;;29.60;27.23;;;9.70;99.90;;;;;;5032498;28;20037;-71
2023/11/03 01:18:42;;;;;;;21.52;19.75;;;9.70;99.90;;;;;;5032314;28;20041;-71
2023/11/03 01:21:15;;;;;;;28.25;25.65;;;9.60;99.90;;;;;;5034459;28;20036;-71
2023/11/03 01:23:42;;;;;;;19.70;17.73;;;9.60;99.90;;;;;;5033875;28;20033;-72
2023/11/03 01:26:09;;;;;;;21.95;19.70;;;9.60;99.90;;;;;;5027714;28;20045;-71
2023/11/03 01:28:36;;;;;;;22.05;19.77;;;9.60;99.90;;;;;;5032739;28;20037;-71
2023/11/03 01:31:05;;;;;;;20.67;19.02;;;9.50;99.90;;;;;;5032122;28;20034;-71
2023/11/03 01:33:32;;;;;;;34.97;32.22;;;9.50;99.90;;;;;;5033210;28;20045;-71
2023/11/03 01:35:58;;;;;;;24.40;22.50;;;9.40;99.90;;;;;;5032135;28;20030;-71
2023/11/03 01:38:24;;;;;;;24.40;22.20;;;9.30;99.90;;;;;;5034688;28;20037;-71
2023/11/03 01:40:51;;;;;;;21.08;19.05;;;9.30;99.90;;;;;;5031133;28;20115;-72
2023/11/03 01:43:17;;;;;;;21.33;19.60;;;9.30;99.90;;;;;;5029724;28;20046;-72
2023/11/03 01:45:43;;;;;;;32.67;29.88;;;9.30;99.90;;;;;;5029100;28;20041;-71
2023/11/03 01:48:09;;;;;;;29.17;26.13;;;9.40;99.90;;;;;;5025372;28;20044;-71
2023/11/03 01:50:35;;;;;;;18.25;16.48;;;9.40;99.90;;;;;;5029582;28;20374;-71
2023/11/03 01:53:02;;;;;;;23.55;20.13;;;9.40;99.90;;;;;;5006192;28;20388;-71
2023/11/03 01:55:30;;;;;;;20.48;18.23;;;9.30;99.90;;;;;;5032485;28;20931;-71
2023/11/03 01:57:58;;;;;;;23.42;21.27;;;9.20;99.90;;;;;;5031142;28;20029;-71
2023/11/03 02:00:24;;;;;;;22.30;20.23;;;9.20;99.90;;;;;;5028822;28;20037;-71
2023/11/03 02:02:53;;;;;;;22.38;19.98;;;9.20;99.90;;;;;;5032076;28;20026;-71
2023/11/03 02:05:20;;;;;;;23.10;20.75;;;9.20;99.90;;;;;;5032372;28;20486;-71
2023/11/03 02:07:49;;;;;;;18.52;16.95;;;9.20;99.90;;;;;;5032678;28;20033;-71
2023/11/03 02:10:15;;;;;;;21.73;19.85;;;9.10;99.90;;;;;;5031824;28;20025;-71
2023/11/03 02:12:41;;;;;;;20.40;18.90;;;9.10;99.90;;;;;;5032194;28;20029;-71
2023/11/03 02:15:08;;;;;;;24.10;21.75;;;9.20;99.90;;;;;;5031292;28;20032;-70
2023/11/03 02:17:37;;;;;;;25.65;18.58;;;9.10;99.90;;;;;;5032295;28;20052;-71
2023/11/03 02:20:06;;;;;;;20.65;18.75;;;9.10;99.90;;;;;;5029529;28;20049;-71
2023/11/03 02:22:32;;;;;;;33.95;31.65;;;9.10;99.90;;;;;;5030934;28;20025;-71
2023/11/03 02:24:58;;;;;;;33.08;30.30;;;9.10;99.90;;;;;;5032252;28;20034;-72
2023/11/03 02:27:25;;;;;;;23.20;21.10;;;9.10;99.90;;;;;;5032709;28;20041;-71
2023/11/03 02:29:52;;;;;;;19.10;17.27;;;9.20;99.90;;;;;;5030609;28;20032;-71
2023/11/03 02:32:18;;;;;;;27.13;24.83;;;9.20;99.90;;;;;;5030700;28;20045;-71
2023/11/03 02:34:44;;;;;;;29.10;27.02;;;9.10;99.90;;;;;;5032182;28;20379;-72
2023/11/03 02:37:10;;;;;;;25.63;23.05;;;9.10;99.90;;;;;;4999527;28;20048;-72
2023/11/03 02:39:36;;;;;;;28.10;25.85;;;9.10;99.90;;;;;;5030765;28;20471;-72
2023/11/03 02:42:06;;;;;;;30.15;27.50;;;9.20;99.90;;;;;;5032119;28;20028;-72
2023/11/03 02:44:32;;;;;;;27.70;24.90;;;9.20;99.90;;;;;;5030917;28;20026;-72
2023/11/03 02:46:59;;;;;;;33.70;30.67;;;9.20;99.90;;;;;;5030685;28;20053;-72
2023/11/03 02:49:27;;;;;;;30.33;27.80;;;9.20;99.90;;;;;;5030030;28;20038;-72
2023/11/03 02:51:53;;;;;;;25.35;23.00;;;9.20;99.90;;;;;;5014461;28;20482;-71
2023/11/03 02:54:19;;;;;;;23.58;20.42;;;9.20;99.90;;;;;;5032406;28;20033;-72
2023/11/03 02:56:45;;;;;;;26.02;23.83;;;9.20;99.90;;;;;;5025310;28;20478;-72
2023/11/03 02:59:11;;;;;;;23.98;21.52;;;9.10;99.90;;;;;;5033008;28;20034;-72
2023/11/03 03:01:39;;;;;;;28.77;26.17;;;9.10;99.90;;;;;;5030699;28;20038;-72
2023/11/03 03:04:05;;;;;;;26.60;24.20;;;9.20;99.90;;;;;;5031733;28;20021;-72
2023/11/03 03:06:32;;;;;;;22.85;20.83;;;9.20;99.90;;;;;;5031536;28;20040;-71
2023/11/03 03:08:58;;;;;;;19.52;17.75;;;9.20;99.90;;;;;;5031651;28;20026;-72
2023/11/03 03:11:25;;;;;;;15.93;13.23;;;9.20;99.90;;;;;;5028046;28;20049;-72
2023/11/03 03:13:51;;;;;;;18.67;16.25;;;9.20;99.90;;;;;;5032956;28;20574;-72
2023/11/03 03:16:18;;;;;;;19.90;17.80;;;9.20;99.90;;;;;;5021297;28;20041;-72
2023/11/03 03:18:46;;;;;;;20.50;18.63;;;9.20;99.90;;;;;;5029944;28;20026;-72
2023/11/03 03:21:16;;;;;;;27.17;24.65;;;9.20;99.90;;;;;;5032769;28;20037;-72
2023/11/03 03:23:42;;;;;;;25.23;22.70;;;9.10;99.90;;;;;;5030705;28;20711;-72
2023/11/03 03:26:08;;;;;;;27.33;22.45;;;9.10;99.90;;;;;;5020469;28;20045;-72
2023/11/03 03:28:34;;;;;;;21.27;19.45;;;9.20;99.90;;;;;;5031207;28;20489;-71
2023/11/03 03:31:00;;;;;;;23.13;21.10;;;9.30;99.90;;;;;;5029286;28;20049;-71
2023/11/03 03:33:27;;;;;;;23.25;21.33;;;9.30;99.90;;;;;;5031966;28;20041;-72
2023/11/03 03:35:53;;;;;;;45.22;42.38;;;9.30;99.90;;;;;;5030845;28;20051;-71
2023/11/03 03:38:19;;;;;;;29.17;26.92;;;9.30;99.90;;;;;;5032724;28;20406;-71
2023/11/03 03:40:45;;;;;;;36.90;34.60;;;9.30;99.90;;;;;;5030933;28;20507;-71
2023/11/03 03:43:11;;;;;;;32.03;29.88;;;9.30;99.90;;;;;;5031930;28;20033;-71
2023/11/03 03:45:37;;;;;;;30.52;28.45;;;9.30;99.90;;;;;;5028724;28;20391;-71
2023/11/03 03:48:03;;;;;;;24.60;22.58;;;9.20;99.90;;;;;;5029150;28;20037;-71
2023/11/03 03:50:29;;;;;;;21.65;19.33;;;9.20;99.90;;;;;;5030486;28;20037;-71
2023/11/03 03:52:55;;;;;;;15.30;13.07;;;9.30;99.90;;;;;;5017659;28;20034;-71
2023/11/03 03:55:22;;;;;;;20.98;15.32;;;9.30;99.90;;;;;;5023925;28;20036;-71
2023/11/03 03:57:49;;;;;;;12.30;11.15;;;9.40;99.90;;;;;;5031308;28;20418;-71
2023/11/03 04:00:15;;;;;;;10.82;8.90;;;9.40;99.90;;;;;;5028670;28;20076;-71
2023/11/03 04:02:41;;;;;;;12.45;10.98;;;9.40;99.90;;;;;;5026015;28;20033;-71
2023/11/03 04:05:08;;;;;;;15.90;14.52;;;9.20;99.90;;;;;;5031719;28;20038;-71
2023/11/03 04:07:34;;;;;;;13.68;11.90;;;9.10;99.90;;;;;;5032229;28;20529;-71
2023/11/03 04:10:00;;;;;;;12.75;11.57;;;9.00;99.90;;;;;;5030961;28;20030;-71
2023/11/03 04:12:26;;;;;;;12.15;9.98;;;9.00;99.90;;;;;;5029655;28;20486;-71
2023/11/03 04:14:53;;;;;;;17.92;12.88;;;9.10;99.90;;;;;;5032371;28;20048;-71
2023/11/03 04:17:19;;;;;;;12.07;10.18;;;9.00;99.90;;;;;;5028371;28;20069;-71
2023/11/03 04:19:45;;;;;;;11.75;10.52;;;9.00;99.90;;;;;;5012537;28;20386;-71
2023/11/03 04:22:11;;;;;;;12.57;11.23;;;9.00;99.90;;;;;;5030840;28;20045;-71
2023/11/03 04:24:37;;;;;;;11.35;10.25;;;8.90;99.90;;;;;;5030710;28;20481;-71
2023/11/03 04:27:03;;;;;;;10.80;9.40;;;9.00;99.90;;;;;;5029887;28;20048;-70
2023/11/03 04:29:30;;;;;;;10.75;9.75;;;9.00;99.90;;;;;;5031539;28;20048;-71
2023/11/03 04:31:56;;;;;;;10.93;9.85;;;9.00;99.90;;;;;;5029561;28;20065;-71
2023/11/03 04:34:22;;;;;;;12.10;10.95;;;8.90;99.90;;;;;;5031225;28;20482;-71
2023/11/03 04:36:50;;;;;;;15.50;13.32;;;8.90;99.90;;;;;;5028974;28;20048;-71
2023/11/03 04:39:16;;;;;;;14.55;13.38;;;8.90;99.90;;;;;;5030713;28;20037;-71
2023/11/03 04:41:42;;;;;;;13.85;12.65;;;8.90;99.90;;;;;;5031485;28;20494;-71
2023/11/03 04:44:09;;;;;;;15.45;13.38;;;8.90;99.90;;;;;;5031329;28;20025;-71
2023/11/03 04:46:35;;;;;;;12.75;11.63;;;9.00;99.90;;;;;;5027714;28;20049;-71
2023/11/03 04:49:02;;;;;;;13.63;12.35;;;9.00;99.90;;;;;;5029960;28;20042;-71
2023/11/03 04:51:28;;;;;;;13.93;12.50;;;9.00;99.90;;;;;;5028234;28;20025;-71
2023/11/03 04:53:55;;;;;;;12.27;11.15;;;9.00;99.90;;;;;;5025387;28;20032;-71
2023/11/03 04:56:21;;;;;;;12.40;11.55;;;9.00;99.90;;;;;;5030898;28;20033;-71
2023/11/03 04:58:48;;;;;;;12.10;11.13;;;9.00;99.90;;;;;;5028855;28;20040;-71
2023/11/03 05:01:14;;;;;;;12.27;11.27;;;9.00;99.90;;;;;;5029248;28;20049;-71
2023/11/03 05:03:40;;;;;;;12.70;11.57;;;9.00;99.90;;;;;;5029873;28;20034;-71
2023/11/03 05:06:07;;;;;;;13.02;11.95;;;9.00;99.90;;;;;;5028840;28;20394;-71
2023/11/03 05:08:33;;;;;;;12.77;11.50;;;9.00;99.90;;;;;;5028294;28;20420;-71
2023/11/03 05:11:00;;;;;;;10.57;9.68;;;9.00;99.90;;;;;;5022066;28;20025;-71
2023/11/03 05:13:26;;;;;;;12.82;11.52;;;9.10;99.90;;;;;;5026338;28;20041;-71
2023/11/03 05:15:52;;;;;;;11.30;10.40;;;9.10;99.90;;;;;;5028961;28;20029;-71
2023/11/03 05:18:18;;;;;;;14.15;13.10;;;9.10;99.90;;;;;;5031375;28;20052;-71
2023/11/03 05:20:44;;;;;;;81.55;24.67;;;9.10;99.90;;;;;;5029790;28;20037;-71
2023/11/03 05:23:10;;;;;;;12.57;11.50;;;9.10;99.90;;;;;;5029621;28;20503;-71
2023/11/03 05:25:36;;;;;;;16.55;14.93;;;9.10;99.90;;;;;;5028517;28;20073;-71
2023/11/03 05:28:03;;;;;;;414.05;39.60;;;9.10;99.90;;;;;;5030901;28;20029;-71
2023/11/03 05:30:29;;;;;;;10.95;9.95;;;9.10;99.90;;;;;;5028464;28;20045;-71
2023/11/03 05:32:55;;;;;;;11.98;10.95;;;9.10;99.90;;;;;;5029967;28;20374;-71
2023/11/03 05:35:21;;;;;;;11.40;10.57;;;9.10;99.90;;;;;;5030062;28;20064;-71
2023/11/03 05:37:47;;;;;;;12.75;11.52;;;9.20;99.90;;;;;;5031621;28;20034;-71
2023/11/03 05:40:14;;;;;;;12.70;10.80;;;9.20;99.90;;;;;;5031381;28;20030;-71
2023/11/03 05:42:40;;;;;;;15.75;14.85;;;9.20;99.90;;;;;;5033698;28;20497;-71
2023/11/03 05:45:07;;;;;;;14.55;13.65;;;9.20;99.90;;;;;;5032558;28;20033;-71
2023/11/03 05:47:33;;;;;;;17.40;16.20;;;9.20;99.90;;;;;;5028099;28;20045;-71
2023/11/03 05:49:59;;;;;;;279.45;26.33;;;9.20;99.90;;;;;;5033328;28;20044;-71
2023/11/03 05:52:25;;;;;;;14.57;13.60;;;9.10;99.90;;;;;;5034500;28;20037;-71
2023/11/03 05:54:52;;;;;;;15.45;14.52;;;9.20;99.90;;;;;;5033118;28;20072;-71
2023/11/03 05:57:18;;;;;;;14.77;13.73;;;9.20;99.90;;;;;;5026971;28;20057;-71
2023/11/03 05:59:44;;;;;;;15.13;13.93;;;9.20;99.90;;;;;;5014742;28;20379;-70
2023/11/03 06:02:11;;;;;;;11.98;11.18;;;9.20;99.90;;;;;;5031264;28;20053;-71
2023/11/03 06:04:37;;;;;;;14.40;13.35;;;9.30;99.90;;;;;;4998551;28;20034;-71
2023/11/03 06:07:06;;;;;;;15.65;14.60;;;9.30;99.90;;;;;;5029733;28;20052;-71
2023/11/03 06:09:33;;;;;;;14.85;13.95;;;9.30;99.90;;;;;;5018430;28;20038;-71
2023/11/03 06:12:00;;;;;;;13.13;12.35;;;9.30;99.90;;;;;;5027238;28;20494;-71
2023/11/03 06:14:27;;;;;;;13.82;12.40;;;9.20;99.90;;;;;;5032291;28;20045;-71
2023/11/03 06:16:53;;;;;;;13.57;12.68;;;9.30;99.90;;;;;;5026571;28;20379;-71
2023/11/03 06:19:19;;;;;;;14.40;13.52;;;9.30;99.90;;;;;;5017876;28;20501;-71
2023/11/03 06:21:45;;;;;;;16.02;14.93;;;9.30;99.90;;;;;;5026597;28;20034;-71
2023/11/03 06:24:12;;;;;;;17.20;16.23;;;9.30;99.90;;;;;;5032917;28;20506;-71
2023/11/03 06:26:38;;;;;;;17.15;16.05;;;9.30;99.90;;;;;;5030806;28;20414;-71
2023/11/03 06:29:05;;;;;;;18.52;17.35;;;9.30;99.90;;;;;;5030971;28;20025;-71
2023/11/03 06:31:31;;;;;;;15.18;14.20;;;9.20;99.90;;;;;;5030250;28;20037;-71
2023/11/03 06:33:57;;;;;;;13.43;12.52;;;9.20;99.90;;;;;;5032187;28;20390;-70
2023/11/03 06:36:23;;;;;;;17.45;16.55;;;9.20;99.90;;;;;;5033221;28;20022;-71
2023/11/03 06:38:50;;;;;;;17.55;16.30;;;9.20;99.90;;;;;;5024797;28;20033;-71
2023/11/03 06:41:16;;;;;;;17.27;16.17;;;9.10;99.90;;;;;;5031818;28;20390;-71
2023/11/03 06:43:43;;;;;;;31.45;14.88;;;9.20;99.90;;;;;;5033437;28;20030;-71
2023/11/03 06:46:09;;;;;;;14.18;13.13;;;9.20;99.90;;;;;;5029056;28;20243;-71
2023/11/03 06:48:38;;;;;;;96.65;16.15;;;9.20;99.90;;;;;;5032107;28;20383;-71
2023/11/03 06:51:11;;;;;;;14.77;13.82;;;9.20;99.90;;;;;;5030288;28;20041;-71
2023/11/03 06:53:37;;;;;;;14.75;13.85;;;9.20;99.90;;;;;;5032137;28;20040;-71
2023/11/03 06:56:04;;;;;;;14.10;13.20;;;9.10;99.90;;;;;;5031343;28;20394;-71
2023/11/03 06:58:32;;;;;;;13.07;11.85;;;9.10;99.90;;;;;;5032965;28;20572;-71
2023/11/03 07:00:59;;;;;;;17.70;16.38;;;9.10;99.90;;;;;;5030442;28;20025;-71
2023/11/03 07:03:25;;;;;;;19.55;18.15;;;9.20;99.90;;;;;;5031615;28;20028;-71
2023/11/03 07:05:52;;;;;;;13.27;12.15;;;9.10;99.90;;;;;;5032088;28;20037;-71
2023/11/03 07:08:18;;;;;;;19.48;18.48;;;9.20;99.90;;;;;;5024154;28;20049;-71
2023/11/03 07:10:44;;;;;;;21.67;20.42;;;9.20;99.90;;;;;;5050016;28;20021;-71
2023/11/03 07:13:11;;;;;;;31.05;29.48;;;9.20;99.90;;;;;;5030065;28;20494;-71
2023/11/03 07:15:37;;;;;;;24.15;22.83;;;9.20;99.90;;;;;;5028969;28;20045;-71
2023/11/03 07:18:03;;;;;;;23.10;21.60;;;9.10;99.90;;;;;;5031098;28;20041;-71
2023/11/03 07:20:30;;;;;;;14.98;14.07;;;9.20;99.90;;;;;;5030883;28;20052;-70
2023/11/03 07:22:56;;;;;;;22.33;21.02;;;9.20;99.90;;;;;;5030892;28;20021;-71
2023/11/03 07:25:26;;;;;;;24.33;23.00;;;9.10;99.90;;;;;;5026982;28;20025;-71
2023/11/03 07:27:52;;;;;;;21.67;20.40;;;9.20;99.90;;;;;;5024106;28;20108;-70
2023/11/03 07:30:19;;;;;;;18.98;17.88;;;9.20;99.90;;;;;;5045426;28;20030;-71
2023/11/03 07:32:45;;;;;;;14.43;13.55;;;9.20;99.90;;;;;;5024557;28;20025;-71
2023/11/03 07:35:14;;;;;;;24.88;23.52;;;9.20;99.90;;;;;;5032256;28;20078;-71
2023/11/03 07:37:41;;;;;;;19.40;18.33;;;9.20;99.90;;;;;;5024128;28;20033;-72
2023/11/03 07:40:08;;;;;;;15.57;14.35;;;9.20;99.90;;;;;;5027327;28;20033;-72
2023/11/03 07:42:34;;;;;;;16.60;15.43;;;9.30;99.90;;;;;;5031012;28;20044;-71
2023/11/03 07:45:00;;;;;;;14.50;13.65;;;9.30;99.90;;;;;;5031930;28;20026;-72
2023/11/03 07:47:26;;;;;;;19.75;18.55;;;9.30;99.90;;;;;;5031153;28;20447;-71
2023/11/03 07:49:53;;;;;;;26.17;24.55;;;9.30;99.90;;;;;;5029556;28;20493;-72
2023/11/03 07:52:19;;;;;;;26.35;24.83;;;9.40;99.90;;;;;;5027090;28;20037;-73
2023/11/03 07:54:45;;;;;;;22.63;21.33;;;9.50;99.90;;;;;;5028622;28;20045;-73
2023/11/03 07:57:12;;;;;;;19.77;18.58;;;9.60;99.90;;;;;;5031094;28;20033;-72
2023/11/03 07:59:41;;;;;;;28.00;26.35;;;9.70;99.90;;;;;;5024895;28;20378;-72
2023/11/03 08:02:07;;;;;;;24.48;22.77;;;9.80;99.90;;;;;;5030991;28;20044;-73
2023/11/03 08:04:33;;;;;;;18.65;17.30;;;9.90;99.90;;;;;;5029847;28;20052;-72
2023/11/03 08:06:59;;;;;;;17.30;16.25;;;10.00;99.90;;;;;;5031761;28;20362;-72
2023/11/03 08:09:30;;;;;;;13.63;12.70;;;10.10;99.90;;;;;;5032113;28;20038;-76
2023/11/03 08:11:57;;;;;;;20.35;19.02;;;10.10;99.90;;;;;;5031482;28;20382;-73
2023/11/03 08:14:23;;;;;;;35.30;33.25;;;10.30;99.90;;;;;;5031259;28;20076;-73
2023/11/03 08:16:50;;;;;;;21.85;20.38;;;10.30;99.90;;;;;;5025470;28;20053;-72
2023/11/03 08:19:16;;;;;;;16.92;15.75;;;10.30;99.90;;;;;;5027994;28;20026;-73
2023/11/03 08:21:43;;;;;;;23.58;21.92;;;10.30;99.90;;;;;;5027979;28;20045;-72
2023/11/03 08:24:11;;;;;;;26.15;24.70;;;10.30;99.90;;;;;;5023824;28;20053;-73
2023/11/03 08:26:38;;;;;;;44.50;41.75;;;10.30;99.90;;;;;;5023758;28;20389;-72
2023/11/03 08:29:05;;;;;;;41.70;39.22;;;10.30;99.90;;;;;;5013672;28;20033;-72
2023/11/03 08:31:31;;;;;;;33.90;31.95;;;10.40;99.90;;;;;;5027333;28;20041;-72
2023/11/03 08:33:57;;;;;;;31.77;29.63;;;10.40;99.90;;;;;;4995666;28;20371;-73
2023/11/03 08:36:24;;;;;;;22.95;21.13;;;10.40;99.90;;;;;;5025014;28;20030;-73
2023/11/03 08:38:51;;;;;;;35.22;33.28;;;10.40;99.90;;;;;;5028693;28;20041;-72
2023/11/03 08:41:19;;;;;;;47.47;44.63;;;10.40;99.90;;;;;;5027558;28;20029;-73
2023/11/03 08:43:46;;;;;;;25.58;23.90;;;10.40;99.90;;;;;;5026243;28;20037;-72
2023/11/03 08:46:12;;;;;;;32.28;29.95;;;10.40;99.90;;;;;;5027948;28;20044;-73
2023/11/03 08:48:41;;;;;;;35.97;33.75;;;10.40;99.90;;;;;;5006786;28;20394;-72
2023/11/03 08:51:08;;;;;;;38.95;36.47;;;10.40;99.90;;;;;;5027477;28;20041;-72
2023/11/03 08:53:34;;;;;;;54.97;51.60;;;10.40;99.90;;;;;;5031250;28;20042;-72
2023/11/03 08:56:01;;;;;;;32.55;30.42;;;10.40;99.90;;;;;;5030901;28;20026;-73
2023/11/03 08:58:30;;;;;;;35.53;33.20;;;10.40;99.90;;;;;;5027047;28;20390;-74
2023/11/03 09:00:56;;;;;;;39.47;37.10;;;10.40;99.90;;;;;;5029918;28;20478;-73
2023/11/03 09:03:22;;;;;;;25.42;23.92;;;10.40;99.90;;;;;;5030477;28;20045;-72
2023/11/03 09:05:48;;;;;;;25.67;24.10;;;10.50;99.90;;;;;;5013725;28;20383;-72
2023/11/03 09:08:15;;;;;;;66.57;62.75;;;10.40;99.90;;;;;;5019585;28;20033;-72
2023/11/03 09:10:41;;;;;;;31.98;29.95;;;10.40;99.90;;;;;;5029393;28;20113;-72
2023/11/03 09:13:07;;;;;;;31.20;29.20;;;10.50;99.90;;;;;;5033757;28;20026;-72
2023/11/03 09:15:34;;;;;;;36.13;34.05;;;10.50;99.90;;;;;;5032324;28;20052;-72
2023/11/03 09:18:00;;;;;;;32.03;29.77;;;10.50;99.90;;;;;;5031933;28;20046;-71
2023/11/03 09:20:26;;;;;;;41.85;39.35;;;10.50;99.90;;;;;;5025826;28;20060;-72
2023/11/03 09:22:52;;;;;;;59.25;55.97;;;10.50;99.90;;;;;;5033942;28;20082;-73
2023/11/03 09:25:18;;;;;;;37.58;35.03;;;10.60;99.90;;;;;;5034753;28;20355;-74
2023/11/03 09:27:44;;;;;;;27.63;26.00;;;10.60;99.90;;;;;;5033733;28;20048;-73
2023/11/03 09:30:10;;;;;;;34.95;32.65;;;10.60;99.90;;;;;;5032792;28;20625;-73
2023/11/03 09:32:37;;;;;;;98.00;53.63;;;10.60;99.90;;;;;;5035394;28;20120;-72
2023/11/03 09:35:04;;;;;;;44.08;41.63;;;10.70;99.90;;;;;;5033833;28;20045;-71
2023/11/03 09:37:30;;;;;;;51.03;48.30;;;10.70;99.90;;;;;;5029485;28;20033;-71
2023/11/03 09:39:57;;;;;;;68.95;65.30;;;10.70;99.90;;;;;;5027999;28;20037;-71
2023/11/03 09:42:23;;;;;;;35.85;33.75;;;10.70;99.90;;;;;;5033073;28;20045;-71
2023/11/03 09:44:50;;;;;;;45.03;42.63;;;10.70;99.90;;;;;;5034533;28;20017;-71
2023/11/03 09:47:16;;;;;;;33.00;30.88;;;10.80;99.90;;;;;;5034125;28;20034;-71
2023/11/03 09:49:45;;;;;;;30.80;28.10;;;10.80;99.90;;;;;;5013439;28;20045;-72
2023/11/03 09:52:12;;;;;;;23.08;21.48;;;10.90;99.90;;;;;;5033515;28;20037;-72
2023/11/03 09:54:41;;;;;;;38.17;35.80;;;11.00;99.90;;;;;;5034939;28;20040;-72
2023/11/03 09:57:09;;;;;;;20.02;18.83;;;11.00;99.90;;;;;;5024908;28;20046;-71
2023/11/03 09:59:37;;;;;;;21.42;20.10;;;11.00;99.90;;;;;;5017189;28;20026;-72
2023/11/03 10:02:09;;;;;;;17.33;16.20;;;11.00;99.90;;;;;;5032757;28;20483;-72
2023/11/03 10:04:39;;;;;;;23.98;17.85;;;11.00;99.90;;;;;;5013333;28;20026;-72
2023/11/03 10:07:06;;;;;;;19.13;17.98;;;11.20;99.90;;;;;;5029297;28;20045;-71
2023/11/03 10:09:32;;;;;;;17.02;15.90;;;11.20;99.90;;;;;;5031876;28;20045;-72
2023/11/03 10:11:59;;;;;;;22.25;20.70;;;11.30;99.90;;;;;;5032677;28;20037;-72
2023/11/03 10:14:25;;;;;;;19.75;18.65;;;11.30;99.90;;;;;;5033841;28;20048;-70
2023/11/03 10:16:52;;;;;;;19.88;18.40;;;11.40;99.90;;;;;;5031198;28;20060;-69
2023/11/03 10:19:21;;;;;;;29.45;27.63;;;11.40;99.90;;;;;;5033683;28;20029;-69
2023/11/03 10:21:47;;;;;;;21.13;19.70;;;11.50;99.90;;;;;;5016282;28;20046;-72
2023/11/03 10:24:16;;;;;;;25.77;24.35;;;11.50;99.90;;;;;;5032047;28;20037;-71
2023/11/03 10:26:43;;;;;;;18.02;16.83;;;11.50;99.90;;;;;;5029281;28;20037;-72
2023/11/03 10:29:11;;;;;;;18.73;17.73;;;11.60;99.90;;;;;;5028314;28;20371;-73
2023/11/03 10:31:38;;;;;;;21.77;20.58;;;11.60;99.90;;;;;;5031722;28;20049;-73
2023/11/03 10:34:06;;;;;;;29.15;27.63;;;11.70;99.90;;;;;;5033708;28;20441;-69
2023/11/03 10:36:34;;;;;;;25.52;24.10;;;11.80;99.90;;;;;;5014803;28;20037;-71
2023/11/03 10:39:00;;;;;;;27.35;25.75;;;11.80;99.90;;;;;;5018681;28;20026;-68
2023/11/03 10:41:27;;;;;;;23.00;21.63;;;12.00;99.90;;;;;;5014306;28;20386;-69
2023/11/03 10:43:57;;;;;;;32.47;30.52;;;12.00;99.90;;;;;;5032195;28;20034;-68
2023/11/03 10:46:33;;;;;;;50.45;47.95;;;12.00;99.90;;;;;;5022507;28;20041;-68
2023/11/03 10:49:11;;;;;;;42.28;39.88;;;12.00;99.90;;;;;;5027226;28;20048;-73
2023/11/03 10:51:40;;;;;;;32.15;30.48;;;12.00;99.90;;;;;;5016732;28;20038;-72
2023/11/03 10:54:16;;;;;;;36.92;34.97;;;12.00;99.90;;;;;;5012814;28;20118;-73
2023/11/03 10:56:44;;;;;;;38.53;36.40;;;12.00;99.90;;;;;;5024469;28;20049;-73
2023/11/03 10:59:10;;;;;;;32.53;30.77;;;12.10;99.90;;;;;;5032369;28;20029;-72
2023/11/03 11:02:02;;;;;;;37.95;35.88;;;12.00;99.90;;;;;;5029193;28;20030;-72
2023/11/03 11:04:42;;;;;;;52.45;49.58;;;12.00;99.90;;;;;;4992597;28;20042;-72
2023/11/03 11:07:14;;;;;;;36.17;34.40;;;12.10;99.90;;;;;;4994553;28;20045;-71
2023/11/03 11:09:46;;;;;;;39.90;37.72;;;12.10;99.90;;;;;;4979651;28;20042;-72
2023/11/03 11:12:16;;;;;;;28.88;27.05;;;12.10;99.90;;;;;;4994513;28;20038;-72
2023/11/03 11:14:42;;;;;;;39.58;37.47;;;12.20;99.90;;;;;;5011371;28;20041;-72
2023/11/03 11:17:09;;;;;;;49.88;47.45;;;12.30;99.90;;;;;;4990503;28;20153;-72
2023/11/03 11:19:40;;;;;;;39.13;37.13;;;12.30;99.90;;;;;;4991623;28;20108;-72
2023/11/03 11:22:09;;;;;;;35.97;34.17;;;12.30;99.90;;;;;;4979081;28;20149;-72
2023/11/03 11:24:38;;;;;;;36.53;34.67;;;12.30;99.90;;;;;;4995303;28;20439;-72
2023/11/03 11:27:14;;;;;;;62.83;59.83;;;12.50;99.90;;;;;;5009677;28;20038;-72
2023/11/03 11:29:41;;;;;;;68.88;65.50;;;12.60;99.90;;;;;;4994362;28;20050;-72
2023/11/03 11:32:10;;;;;;;58.78;55.63;;;12.60;99.90;;;;;;4976949;28;20404;-72
2023/11/03 11:34:39;;;;;;;69.85;66.40;;;12.60;99.90;;;;;;5005829;28;20053;-72
2023/11/03 11:37:26;;;;;;;81.38;77.43;;;12.60;99.90;;;;;;4999361;28;20050;-71
2023/11/03 11:39:53;;;;;;;72.10;68.35;;;12.50;99.90;;;;;;4995880;28;20038;-72
2023/11/03 11:42:21;;;;;;;77.43;73.55;;;12.50;99.90;;;;;;5010676;28;20042;-72
2023/11/03 11:44:50;;;;;;;43.15;40.95;;;12.50;99.90;;;;;;5013898;28;20030;-71
2023/11/03 11:47:17;;;;;;;44.22;41.90;;;12.50;99.90;;;;;;5030170;28;20041;-72
2023/11/03 11:49:43;;;;;;;44.53;42.22;;;12.50;99.90;;;;;;5030248;28;20033;-72
2023/11/03 11:52:09;;;;;;;41.28;39.08;;;12.50;99.90;;;;;;5031694;28;20034;-72
2023/11/03 11:54:35;;;;;;;68.47;64.85;;;12.60;99.90;;;;;;5032352;28;20486;-72
2023/11/03 11:57:02;;;;;;;63.58;60.35;;;12.70;99.90;;;;;;5013141;28;20042;-72
2023/11/03 11:59:29;;;;;;;55.97;52.97;;;12.80;99.90;;;;;;5027286;28;20395;-72
2023/11/03 12:01:55;;;;;;;60.50;57.40;;;12.90;99.90;;;;;;5026082;28;20041;-72
2023/11/03 12:04:23;;;;;;;59.35;55.72;;;13.00;99.90;;;;;;5018453;28;20030;-72
2023/11/03 12:06:49;;;;;;;72.60;68.88;;;13.00;99.90;;;;;;5030176;28;20371;-72
2023/11/03 12:09:15;;;;;;;91.97;87.35;;;13.00;99.90;;;;;;5025767;28;20402;-71
2023/11/03 12:11:44;;;;;;;95.00;90.20;;;13.00;99.90;;;;;;5020249;28;20056;-71
2023/11/03 12:14:11;;;;;;;56.90;53.67;;;12.90;99.90;;;;;;5026809;28;20041;-72
2023/11/03 12:16:37;;;;;;;59.75;56.40;;;12.90;99.90;;;;;;5031240;28;20509;-71
2023/11/03 12:19:03;;;;;;;43.42;41.17;;;12.90;99.90;;;;;;5031834;28;20081;-71
2023/11/03 12:21:30;;;;;;;48.22;45.55;;;12.90;99.90;;;;;;5031507;28;20025;-71
2023/11/03 12:24:00;;;;;;;74.57;70.57;;;13.00;99.90;;;;;;5030646;28;20030;-71
2023/11/03 12:26:29;;;;;;;53.65;50.92;;;13.10;99.90;;;;;;5025967;28;20042;-71
2023/11/03 12:29:24;;;;;;;60.00;57.10;;;13.20;99.90;;;;;;5042998;28;20775;-71
2023/11/03 12:31:50;;;;;;;59.38;56.20;;;13.40;99.90;;;;;;5025232;28;20038;-71